createdAt,value
2018-10-18T00:02:28.214Z,11.50
2018-10-18T00:04:58.957Z,11.97
2018-10-18T00:07:30.297Z,12.70
2018-10-18T00:10:00.174Z,11.93
2018-10-18T00:12:30.293Z,12.10
2018-10-18T00:15:01.440Z,11.83
2018-10-18T00:17:36.256Z,11.43
2018-10-18T00:20:06.496Z,12.13
2018-10-18T00:22:37.334Z,11.53
2018-10-18T00:25:07.476Z,15.37
2018-10-18T00:27:39.156Z,12.07
2018-10-18T00:30:12.330Z,12.50
2018-10-18T00:32:44.103Z,11.80
2018-10-18T00:35:14.884Z,11.60
2018-10-18T00:37:46.945Z,11.70
2018-10-18T00:40:19.176Z,12.27
2018-10-18T00:42:50.458Z,11.73
2018-10-18T00:45:21.852Z,12.20
2018-10-18T00:47:52.246Z,12.73
2018-10-18T00:50:22.084Z,12.67
2018-10-18T00:52:52.196Z,12.97
2018-10-18T00:55:22.464Z,13.00
2018-10-18T00:57:52.440Z,13.33
2018-10-18T01:00:22.952Z,13.40
2018-10-18T01:02:52.636Z,12.57
2018-10-18T01:05:22.767Z,13.47
2018-10-18T01:07:52.899Z,12.60
2018-10-18T01:10:22.976Z,12.60
2018-10-18T01:12:53.919Z,12.33
2018-10-18T01:15:25.780Z,13.43
2018-10-18T01:17:56.550Z,13.40
2018-10-18T01:20:27.517Z,13.77
2018-10-18T01:22:58.964Z,13.47
2018-10-18T01:25:30.348Z,13.90
2018-10-18T01:28:01.018Z,14.63
2018-10-18T01:30:31.904Z,14.17
2018-10-18T01:33:02.825Z,13.93
2018-10-18T01:35:34.756Z,14.47
2018-10-18T01:38:06.135Z,14.97
2018-10-18T01:40:37.459Z,15.23
2018-10-18T01:43:08.867Z,15.00
2018-10-18T01:45:39.634Z,15.43
2018-10-18T01:48:10.810Z,16.63
2018-10-18T01:50:41.373Z,15.53
2018-10-18T01:53:11.900Z,15.73
2018-10-18T01:55:42.604Z,16.40
2018-10-18T01:58:14.069Z,16.57
2018-10-18T02:00:45.308Z,16.47
2018-10-18T02:03:17.636Z,16.23
2018-10-18T02:05:50.804Z,16.80
2018-10-18T02:08:23.211Z,17.33
2018-10-18T02:10:54.808Z,16.67
2018-10-18T02:13:25.953Z,16.60
2018-10-18T02:15:57.587Z,17.07
2018-10-18T02:18:27.243Z,16.37
2018-10-18T02:20:57.619Z,16.00
2018-10-18T02:23:59.797Z,16.80
2018-10-18T02:26:30.932Z,16.93
2018-10-18T02:29:01.576Z,15.77
2018-10-18T02:31:32.159Z,15.77
2018-10-18T02:34:02.678Z,16.97
2018-10-18T02:36:34.596Z,16.07
2018-10-18T02:39:06.523Z,16.07
2018-10-18T02:41:38.122Z,15.87
2018-10-18T02:44:08.951Z,16.33
2018-10-18T02:46:39.193Z,16.27
2018-10-18T02:49:10.968Z,17.13
2018-10-18T02:51:42.533Z,16.63
2018-10-18T02:54:13.410Z,16.90
2018-10-18T02:56:44.707Z,16.27
2018-10-18T02:59:15.367Z,16.47
2018-10-18T03:01:46.424Z,16.77
2018-10-18T03:04:17.869Z,17.37
2018-10-18T03:06:48.427Z,16.30
2018-10-18T03:09:18.590Z,15.73
2018-10-18T03:11:49.454Z,16.23
2018-10-18T03:14:20.440Z,15.73
2018-10-18T03:16:50.332Z,16.03
2018-10-18T03:19:20.585Z,16.47
2018-10-18T03:21:52.174Z,17.03
2018-10-18T03:24:30.098Z,16.43
2018-10-18T03:27:01.432Z,16.57
2018-10-18T03:29:30.932Z,16.80
2018-10-18T03:32:00.684Z,16.97
2018-10-18T03:34:31.154Z,15.37
2018-10-18T03:37:02.342Z,15.73
2018-10-18T03:39:32.961Z,16.47
2018-10-18T03:42:04.411Z,15.87
2018-10-18T03:44:35.964Z,15.93
2018-10-18T03:47:06.360Z,15.03
2018-10-18T03:49:37.673Z,16.23
2018-10-18T03:52:09.210Z,16.13
2018-10-18T03:54:40.039Z,16.30
2018-10-18T03:57:10.135Z,15.70
2018-10-18T03:59:41.459Z,16.00
2018-10-18T04:02:13.079Z,17.13
2018-10-18T04:04:44.310Z,16.47
2018-10-18T04:07:14.880Z,16.40
2018-10-18T04:09:46.934Z,16.37
2018-10-18T04:12:17.935Z,16.37
2018-10-18T04:14:47.899Z,17.50
2018-10-18T04:17:18.644Z,16.07
2018-10-18T04:19:50.743Z,15.70
2018-10-18T04:22:22.223Z,16.30
2018-10-18T04:24:52.280Z,16.23
2018-10-18T04:27:22.244Z,16.83
2018-10-18T04:29:53.305Z,16.37
2018-10-18T04:32:24.031Z,16.10
2018-10-18T04:34:55.542Z,16.40
2018-10-18T04:37:26.963Z,15.27
2018-10-18T04:39:57.984Z,16.13
2018-10-18T04:42:29.166Z,16.40
2018-10-18T04:45:00.851Z,16.73
2018-10-18T04:47:31.365Z,16.67
2018-10-18T04:50:02.276Z,15.03
2018-10-18T04:52:33.363Z,16.43
2018-10-18T04:55:03.594Z,15.70
2018-10-18T04:57:35.889Z,15.90
2018-10-18T05:00:04.953Z,16.60
2018-10-18T05:02:35.696Z,18.20
2018-10-18T05:05:15.490Z,16.30
2018-10-18T05:07:46.868Z,16.30
2018-10-18T05:10:17.343Z,15.17
2018-10-18T05:12:47.962Z,16.00
2018-10-18T05:15:19.462Z,14.97
2018-10-18T05:17:49.624Z,15.37
2018-10-18T05:20:26.707Z,15.97
2018-10-18T05:22:57.947Z,16.90
2018-10-18T05:25:28.158Z,16.83
2018-10-18T05:27:59.684Z,16.37
2018-10-18T05:30:31.335Z,16.67
2018-10-18T05:33:01.049Z,15.37
2018-10-18T05:35:32.594Z,15.83
2018-10-18T05:38:03.096Z,16.40
2018-10-18T05:40:33.080Z,15.37
2018-10-18T05:43:03.226Z,15.20
2018-10-18T05:45:34.797Z,15.23
2018-10-18T05:48:06.112Z,16.20
2018-10-18T05:50:37.368Z,15.17
2018-10-18T05:53:08.091Z,15.80
2018-10-18T05:55:39.221Z,15.40
2018-10-18T05:58:09.692Z,15.77
2018-10-18T06:00:40.575Z,16.23
2018-10-18T06:03:12.623Z,16.00
2018-10-18T06:05:44.508Z,15.33
2018-10-18T06:08:15.920Z,15.20
2018-10-18T06:10:55.957Z,16.27
2018-10-18T06:13:27.360Z,15.30
2018-10-18T06:15:59.260Z,15.27
2018-10-18T06:18:30.848Z,14.80
2018-10-18T06:21:02.705Z,14.60
2018-10-18T06:23:33.917Z,14.90
2018-10-18T06:26:05.281Z,14.20
2018-10-18T06:28:36.621Z,13.93
2018-10-18T06:31:08.158Z,12.40
2018-10-18T06:33:39.873Z,12.57
2018-10-18T06:36:10.978Z,12.97
2018-10-18T06:38:41.566Z,12.57
2018-10-18T06:41:12.913Z,13.40
2018-10-18T06:43:44.331Z,11.87
2018-10-18T06:46:15.453Z,11.97
2018-10-18T06:48:46.814Z,12.17
2018-10-18T06:51:17.492Z,12.63
2018-10-18T06:53:48.253Z,12.97
2018-10-18T06:56:19.304Z,13.57
2018-10-18T06:58:52.076Z,14.83
2018-10-18T07:01:22.780Z,14.80
2018-10-18T07:03:54.234Z,14.50
2018-10-18T07:06:25.417Z,14.67
2018-10-18T07:08:56.923Z,13.17
2018-10-18T07:11:28.355Z,14.20
2018-10-18T07:13:59.445Z,13.03
2018-10-18T07:16:30.878Z,13.23
2018-10-18T07:19:01.612Z,11.90
2018-10-18T07:21:32.063Z,12.27
2018-10-18T07:24:03.613Z,12.37
2018-10-18T07:26:34.265Z,11.83
2018-10-18T07:29:04.937Z,11.37
2018-10-18T07:31:36.711Z,10.90
2018-10-18T07:34:06.647Z,11.37
2018-10-18T07:36:37.921Z,11.27
2018-10-18T07:39:10.336Z,11.50
2018-10-18T07:41:42.527Z,11.07
2018-10-18T07:44:13.280Z,11.23
2018-10-18T07:46:43.487Z,10.57
2018-10-18T07:49:13.222Z,10.60
2018-10-18T07:51:43.545Z,10.67
2018-10-18T07:54:15.035Z,10.57
2018-10-18T07:56:45.713Z,9.87
2018-10-18T07:59:17.285Z,9.13
2018-10-18T08:01:48.462Z,9.03
2018-10-18T08:04:19.889Z,8.47
2018-10-18T08:06:50.159Z,8.50
2018-10-18T08:09:20.709Z,7.57
2018-10-18T08:11:51.665Z,8.10
2018-10-18T08:14:22.517Z,7.90
2018-10-18T08:16:54.087Z,7.70
2018-10-18T08:19:24.862Z,7.07
2018-10-18T08:21:55.431Z,7.77
2018-10-18T08:24:26.812Z,7.03
2018-10-18T08:26:58.304Z,7.03
2018-10-18T08:29:29.924Z,7.53
2018-10-18T08:32:02.005Z,7.97
2018-10-18T08:34:32.590Z,7.47
2018-10-18T08:37:02.839Z,7.53
2018-10-18T08:39:32.433Z,7.43
2018-10-18T08:42:02.453Z,7.40
2018-10-18T08:44:32.464Z,7.03
2018-10-18T08:47:01.565Z,6.20
2018-10-18T08:49:32.083Z,6.40
2018-10-18T08:52:01.778Z,6.67
2018-10-18T08:54:32.260Z,6.20
2018-10-18T08:57:01.072Z,6.17
2018-10-18T08:59:31.704Z,7.30
2018-10-18T09:02:02.337Z,6.87
2018-10-18T09:04:32.288Z,6.03
2018-10-18T09:07:03.189Z,5.63
2018-10-18T09:09:33.570Z,5.70
2018-10-18T09:12:04.076Z,5.90
2018-10-18T09:14:36.470Z,5.50
2018-10-18T09:17:07.690Z,5.40
2018-10-18T09:19:39.154Z,4.90
2018-10-18T09:22:09.702Z,5.10
2018-10-18T09:24:41.720Z,5.03
2018-10-18T09:27:11.431Z,4.60
2018-10-18T09:29:41.837Z,4.40
2018-10-18T09:32:13.145Z,4.57
2018-10-18T09:34:45.431Z,4.50
2018-10-18T09:37:16.041Z,4.43
2018-10-18T09:39:47.345Z,4.10
2018-10-18T09:42:18.696Z,4.30
2018-10-18T09:44:50.170Z,4.00
2018-10-18T09:47:19.811Z,3.53
2018-10-18T09:49:51.030Z,3.67
2018-10-18T09:52:21.456Z,3.80
2018-10-18T09:54:52.858Z,4.13
2018-10-18T09:57:25.312Z,3.60
2018-10-18T09:59:57.412Z,3.70
2018-10-18T10:02:33.999Z,3.97
2018-10-18T10:05:04.393Z,3.47
2018-10-18T10:07:35.205Z,3.50
2018-10-18T10:10:07.606Z,3.27
2018-10-18T10:12:36.693Z,3.43
2018-10-18T10:15:09.738Z,3.23
2018-10-18T10:17:39.594Z,3.50
2018-10-18T10:20:10.544Z,3.13
2018-10-18T10:22:41.736Z,3.20
2018-10-18T10:25:11.561Z,3.10
2018-10-18T10:27:41.550Z,2.80
2018-10-18T10:30:12.333Z,3.20
2018-10-18T10:32:42.761Z,3.10
2018-10-18T10:35:13.464Z,3.10
2018-10-18T10:37:44.996Z,2.87
2018-10-18T10:40:16.576Z,2.70
2018-10-18T10:42:48.891Z,3.10
2018-10-18T10:45:20.545Z,3.10
2018-10-18T10:47:52.216Z,2.87
2018-10-18T10:50:22.328Z,2.80
2018-10-18T10:52:51.669Z,2.70
2018-10-18T10:55:20.962Z,2.67
2018-10-18T11:00:39.298Z,2.77
2018-10-18T11:03:10.611Z,2.85
2018-10-18T11:05:42.506Z,2.80
2018-10-18T11:08:13.419Z,2.70
2018-10-18T11:10:43.580Z,2.60
2018-10-18T11:13:14.884Z,2.47
2018-10-18T11:15:45.563Z,2.20
2018-10-18T11:18:17.348Z,2.47
2018-10-18T11:20:48.765Z,2.40
2018-10-18T11:23:20.323Z,2.30
2018-10-18T11:25:53.079Z,2.25
2018-10-18T11:28:24.215Z,1.90
2018-10-18T11:30:56.443Z,1.82
2018-10-18T11:33:28.014Z,1.87
2018-10-18T11:35:59.991Z,1.90
2018-10-18T11:38:30.581Z,1.85
2018-10-18T11:41:03.976Z,1.90
2018-10-18T11:43:35.667Z,1.90
2018-10-18T11:46:05.663Z,1.72
2018-10-18T11:48:37.578Z,1.80
2018-10-18T11:51:09.006Z,1.62
2018-10-18T11:53:37.733Z,2.00
2018-10-18T11:56:08.385Z,1.87
2018-10-18T11:58:39.026Z,1.70
2018-10-18T12:01:10.685Z,1.60
2018-10-18T12:03:42.058Z,1.60
2018-10-18T12:06:13.242Z,1.90
2018-10-18T12:08:43.582Z,1.98
2018-10-18T12:11:14.722Z,1.47
2018-10-18T12:13:44.600Z,1.80
2018-10-18T12:16:14.746Z,1.70
2018-10-18T12:18:45.321Z,1.45
2018-10-18T12:21:14.991Z,1.82
2018-10-18T12:23:45.097Z,1.80
2018-10-18T12:26:16.026Z,1.80
2018-10-18T12:28:46.903Z,1.62
2018-10-18T12:31:18.315Z,1.72
2018-10-18T12:33:48.825Z,1.42
2018-10-18T12:36:20.374Z,1.47
2018-10-18T12:38:52.980Z,1.70
2018-10-18T12:41:24.458Z,1.40
2018-10-18T12:43:55.115Z,1.80
2018-10-18T12:46:26.174Z,1.60
2018-10-18T12:48:57.401Z,1.57
2018-10-18T12:51:28.021Z,1.40
2018-10-18T12:53:59.263Z,1.57
2018-10-18T12:56:29.201Z,1.50
2018-10-18T12:59:00.325Z,1.30
2018-10-18T13:01:30.890Z,1.30
2018-10-18T13:04:03.971Z,1.40
2018-10-18T13:06:34.660Z,1.80
2018-10-18T13:09:07.762Z,1.77
2018-10-18T13:11:38.966Z,1.40
2018-10-18T13:14:10.860Z,1.60
2018-10-18T13:16:42.355Z,1.53
2018-10-18T13:19:12.078Z,1.50
2018-10-18T13:21:42.575Z,1.50
2018-10-18T13:24:14.051Z,1.40
2018-10-18T13:26:44.900Z,1.50
2018-10-18T13:29:16.309Z,1.50
2018-10-18T13:31:47.787Z,1.47
2018-10-18T13:34:18.485Z,1.30
2018-10-18T13:36:49.319Z,1.50
2018-10-18T13:39:20.448Z,1.40
2018-10-18T13:41:51.928Z,1.30
2018-10-18T13:44:22.520Z,1.30
2018-10-18T13:46:53.240Z,1.50
2018-10-18T13:49:24.933Z,1.40
2018-10-18T13:51:56.371Z,1.40
2018-10-18T13:54:28.152Z,1.30
2018-10-18T13:56:59.436Z,1.33
2018-10-18T13:59:39.461Z,1.10
2018-10-18T14:02:10.285Z,0.93
2018-10-18T14:04:41.140Z,1.10
2018-10-18T14:07:12.880Z,1.10
2018-10-18T14:09:48.739Z,0.93
2018-10-18T14:12:20.289Z,1.13
2018-10-18T14:14:50.219Z,0.97
2018-10-18T14:17:20.683Z,1.10
2018-10-18T14:19:52.028Z,1.10
2018-10-18T14:22:22.143Z,0.80
2018-10-18T14:24:52.356Z,0.80
2018-10-18T14:27:23.272Z,1.23
2018-10-18T14:29:53.849Z,0.90
2018-10-18T14:32:25.312Z,1.57
2018-10-18T14:34:56.867Z,1.00
2018-10-18T14:37:28.203Z,0.70
2018-10-18T14:40:00.271Z,0.73
2018-10-18T14:42:31.055Z,0.80
2018-10-18T14:45:03.467Z,1.10
2018-10-18T14:47:34.380Z,1.00
2018-10-18T14:50:04.541Z,1.00
2018-10-18T14:52:35.812Z,0.80
2018-10-18T14:55:06.608Z,0.80
2018-10-18T14:57:38.440Z,0.87
2018-10-18T15:00:10.706Z,1.00
2018-10-18T15:02:41.298Z,0.80
2018-10-18T15:05:13.197Z,0.80
2018-10-18T15:07:44.682Z,0.83
2018-10-18T15:10:15.330Z,0.80
2018-10-18T15:12:46.707Z,0.80
2018-10-18T15:15:18.113Z,0.90
2018-10-18T15:17:50.449Z,0.83
2018-10-18T15:20:22.066Z,0.80
2018-10-18T15:22:53.914Z,0.90
2018-10-18T15:25:24.579Z,0.90
2018-10-18T15:27:56.062Z,0.80
2018-10-18T15:30:26.019Z,0.77
2018-10-18T15:32:58.774Z,0.80
2018-10-18T15:35:29.776Z,1.00
2018-10-18T15:38:01.148Z,1.20
2018-10-18T15:40:32.765Z,1.30
2018-10-18T15:43:03.368Z,1.07
2018-10-18T15:45:34.741Z,1.47
2018-10-18T15:48:06.165Z,1.30
2018-10-18T15:50:38.421Z,1.00
2018-10-18T15:53:10.052Z,0.67
2018-10-18T15:55:41.351Z,0.60
2018-10-18T15:58:12.917Z,0.70
2018-10-18T16:00:43.439Z,0.80
2018-10-18T16:03:14.725Z,0.70
2018-10-18T16:05:47.118Z,0.90
2018-10-18T16:08:18.278Z,0.77
2018-10-18T16:10:49.376Z,1.00
2018-10-18T16:13:21.001Z,0.63
2018-10-18T16:15:49.816Z,0.70
2018-10-18T16:18:21.245Z,0.80
2018-10-18T16:20:50.636Z,0.80
2018-10-18T16:23:21.547Z,1.10
2018-10-18T16:25:52.859Z,0.83
2018-10-18T16:28:22.900Z,0.83
2018-10-18T16:30:54.905Z,0.80
2018-10-18T16:33:26.001Z,0.73
2018-10-18T16:35:56.512Z,0.90
2018-10-18T16:38:27.385Z,1.17
2018-10-18T16:40:57.723Z,2.10
2018-10-18T16:43:29.114Z,1.53
2018-10-18T16:46:00.020Z,1.10
2018-10-18T16:48:30.923Z,0.93
2018-10-18T16:51:02.549Z,0.90
2018-10-18T16:53:33.214Z,0.83
2018-10-18T16:56:02.361Z,0.67
2018-10-18T16:58:31.221Z,0.90
2018-10-18T17:01:01.684Z,0.90
2018-10-18T17:03:32.889Z,1.10
2018-10-18T17:06:04.514Z,1.07
2018-10-18T17:08:34.585Z,0.90
2018-10-18T17:11:05.885Z,1.13
2018-10-18T17:13:35.123Z,1.00
2018-10-18T17:16:04.506Z,1.27
2018-10-18T17:18:35.949Z,1.07
2018-10-18T17:21:06.771Z,1.00
2018-10-18T17:23:37.516Z,1.07
2018-10-18T17:26:08.374Z,1.00
2018-10-18T17:28:39.411Z,1.13
2018-10-18T17:31:10.056Z,1.10
2018-10-18T17:33:41.356Z,1.20
2018-10-18T17:36:11.615Z,1.10
2018-10-18T17:38:42.920Z,1.00
2018-10-18T17:41:15.506Z,1.23
2018-10-18T17:43:44.747Z,1.50
2018-10-18T17:46:16.942Z,1.40
2018-10-18T17:48:47.333Z,1.50
2018-10-18T17:51:18.288Z,1.53
2018-10-18T17:53:50.526Z,2.30
2018-10-18T17:56:21.125Z,3.17
2018-10-18T17:58:51.195Z,3.67
2018-10-18T18:01:23.486Z,2.50
2018-10-18T18:03:54.936Z,2.07
2018-10-18T18:06:26.009Z,2.17
2018-10-18T18:11:28.921Z,2.23
2018-10-18T18:14:00.368Z,1.67
2018-10-18T18:16:30.378Z,1.90
2018-10-18T18:19:01.922Z,2.00
2018-10-18T18:21:33.375Z,1.80
2018-10-18T18:24:04.429Z,2.10
2018-10-18T18:26:45.074Z,1.83
2018-10-18T18:29:05.550Z,1.90
2018-10-18T18:31:36.208Z,2.43
2018-10-18T18:34:05.437Z,2.57
2018-10-18T18:36:35.147Z,3.13
2018-10-18T18:39:07.567Z,3.50
2018-10-18T18:41:38.576Z,4.07
2018-10-18T18:44:09.761Z,3.17
2018-10-18T18:46:40.881Z,2.40
2018-10-18T18:49:12.502Z,2.57
2018-10-18T18:51:43.590Z,3.77
2018-10-18T18:54:13.150Z,2.70
2018-10-18T18:56:44.604Z,1.80
2018-10-18T18:59:14.577Z,2.40
2018-10-18T19:01:44.475Z,1.90
2018-10-18T19:04:13.569Z,2.00
2018-10-18T19:06:44.057Z,2.60
2018-10-18T19:09:13.995Z,2.80
2018-10-18T19:11:42.896Z,2.60
2018-10-18T19:14:13.193Z,2.60
2018-10-18T19:16:43.222Z,2.73
2018-10-18T19:19:13.443Z,2.90
2018-10-18T19:21:43.233Z,3.93
2018-10-18T19:24:13.264Z,2.70
2018-10-18T19:26:43.093Z,3.30
2018-10-18T19:29:14.045Z,3.30
2018-10-18T19:31:44.131Z,2.70
2018-10-18T19:34:14.856Z,2.43
2018-10-18T19:36:44.641Z,2.50
2018-10-18T19:39:15.270Z,3.00
2018-10-18T19:41:46.443Z,2.70
2018-10-18T19:44:17.951Z,2.40
2018-10-18T19:46:48.838Z,2.90
2018-10-18T19:49:19.289Z,2.40
2018-10-18T19:51:51.093Z,2.30
2018-10-18T19:54:23.194Z,2.27
2018-10-18T19:56:53.353Z,2.50
2018-10-18T19:59:24.413Z,2.30
2018-10-18T20:01:54.254Z,2.57
2018-10-18T20:04:24.317Z,2.17
2018-10-18T20:06:53.557Z,2.37
2018-10-18T20:09:23.916Z,2.30
2018-10-18T20:11:55.999Z,2.60
2018-10-18T20:14:25.496Z,2.60
2018-10-18T20:16:57.057Z,2.60
2018-10-18T20:19:29.072Z,2.20
2018-10-18T20:22:01.059Z,3.13
2018-10-18T20:24:33.656Z,2.67
2018-10-18T20:27:04.947Z,2.10
2018-10-18T20:29:36.958Z,1.73
2018-10-18T20:32:09.009Z,1.60
2018-10-18T20:34:39.952Z,1.70
2018-10-18T20:37:11.943Z,1.37
2018-10-18T20:39:43.533Z,1.43
2018-10-18T20:42:14.981Z,1.30
2018-10-18T20:44:45.169Z,1.60
2018-10-18T20:47:15.549Z,2.57
2018-10-18T20:49:46.253Z,2.30
2018-10-18T20:52:16.813Z,2.13
2018-10-18T20:54:47.519Z,2.20
2018-10-18T20:57:19.872Z,2.30
2018-10-18T20:59:50.661Z,1.93
2018-10-18T21:02:21.341Z,1.77
2018-10-18T21:04:52.056Z,1.93
2018-10-18T21:07:24.244Z,1.80
2018-10-18T21:09:55.099Z,1.83
2018-10-18T21:12:26.738Z,1.93
2018-10-18T21:14:58.191Z,2.10
2018-10-18T21:17:28.850Z,1.97
2018-10-18T21:19:59.164Z,1.77
2018-10-18T21:22:31.776Z,2.10
2018-10-18T21:25:02.692Z,2.13
2018-10-18T21:27:34.116Z,1.77
2018-10-18T21:30:06.497Z,2.07
2018-10-18T21:32:37.494Z,1.70
2018-10-18T21:35:08.518Z,1.60
2018-10-18T21:37:40.718Z,1.80
2018-10-18T21:40:12.656Z,1.90
2018-10-18T21:42:43.783Z,2.10
2018-10-18T21:45:15.037Z,1.93
2018-10-18T21:47:46.815Z,2.07
2018-10-18T21:50:17.004Z,1.90
2018-10-18T21:52:47.944Z,2.10
2018-10-18T21:55:17.577Z,1.87
2018-10-18T21:57:47.704Z,2.13
2018-10-18T22:00:17.809Z,2.00
2018-10-18T22:02:48.715Z,2.27
2018-10-18T22:05:19.904Z,2.10
2018-10-18T22:07:52.338Z,2.77
2018-10-18T22:10:23.476Z,2.47
2018-10-18T22:12:55.316Z,2.30
2018-10-18T22:15:26.160Z,2.10
2018-10-18T22:17:56.266Z,2.03
2018-10-18T22:20:27.445Z,2.70
2018-10-18T22:22:57.994Z,3.60
2018-10-18T22:25:29.581Z,2.40
2018-10-18T22:28:01.145Z,2.40
2018-10-18T22:30:32.836Z,2.10
2018-10-18T22:33:03.886Z,2.40
2018-10-18T22:35:35.391Z,1.97
2018-10-18T22:38:05.453Z,2.50
2018-10-18T22:40:37.340Z,1.90
2018-10-18T22:43:07.620Z,1.70
2018-10-18T22:45:38.352Z,1.90
2018-10-18T22:48:09.336Z,1.83
2018-10-18T22:50:41.873Z,2.07
2018-10-18T22:53:13.018Z,1.80
2018-10-18T22:55:43.911Z,1.70
2018-10-18T22:58:15.493Z,2.20
2018-10-18T23:00:51.375Z,2.23
2018-10-18T23:03:22.903Z,2.27
2018-10-18T23:05:53.863Z,2.77
2018-10-18T23:08:26.269Z,2.17
2018-10-18T23:10:56.584Z,2.10
2018-10-18T23:13:27.726Z,2.20
2018-10-18T23:15:59.032Z,2.20
2018-10-18T23:18:30.525Z,1.90
2018-10-18T23:21:01.773Z,2.00
2018-10-18T23:23:32.862Z,2.47
2018-10-18T23:26:03.436Z,2.20
2018-10-18T23:28:34.297Z,2.07
2018-10-18T23:31:06.305Z,2.30
2018-10-18T23:33:36.055Z,2.57
2018-10-18T23:36:08.289Z,2.40
2018-10-18T23:38:40.013Z,2.60
2018-10-18T23:41:12.673Z,2.23
2018-10-18T23:43:43.849Z,2.57
2018-10-18T23:46:16.544Z,2.47
2018-10-18T23:48:46.866Z,2.63
2018-10-18T23:51:16.255Z,2.30
2018-10-18T23:53:48.464Z,2.30
2018-10-18T23:56:18.833Z,2.50
2018-10-18T23:58:49.400Z,2.90
